Time;durP1;ratioP1;P1;durP2;ratioP2;P2;SDS_P1;SDS_P2;PMS_P1;PMS_P2;Temp;Humidity;BMP_temperature;BMP_pressure;BME280_temperature;BME280_humidity;BME280_pressure;Samples;Min_cycle;Max_cycle;Signal;HPM_P1;HPM_P2
2021/12/03 00:00:55;;;;;;;5.72;2.53;;;;;;;;;;5037983;28;20735;-71
2021/12/03 00:03:21;;;;;;;10.27;2.50;;;;;;;;;;5031208;28;20186;-71
2021/12/03 00:05:47;;;;;;;6.75;2.65;;;;;;;;;;5028946;28;20025;-72
2021/12/03 00:08:13;;;;;;;7.30;2.05;;;-2.00;99.90;;;;;;5036263;28;20123;-72
2021/12/03 00:10:39;;;;;;;10.15;2.25;;;-1.90;99.90;;;;;;5038127;28;20025;-71
2021/12/03 00:13:04;;;;;;;11.75;2.35;;;-2.10;99.90;;;;;;5033800;28;20037;-71
2021/12/03 00:15:30;;;;;;;9.73;2.30;;;;;;;;;;5028696;28;20053;-71
2021/12/03 00:17:56;;;;;;;8.70;2.65;;;;;;;;;;5033342;28;20036;-72
2021/12/03 00:20:22;;;;;;;8.77;2.38;;;-2.00;99.90;;;;;;5034171;28;20044;-72
2021/12/03 00:22:47;;;;;;;17.15;3.08;;;-2.00;99.90;;;;;;5034260;28;20508;-72
2021/12/03 00:25:13;;;;;;;9.60;2.30;;;-1.90;99.90;;;;;;5027589;28;20049;-72
2021/12/03 00:27:38;;;;;;;8.77;2.45;;;-1.80;99.90;;;;;;5032766;28;20561;-72
2021/12/03 00:30:04;;;;;;;6.65;2.35;;;;;;;;;;5040016;28;20021;-72
2021/12/03 00:32:30;;;;;;;7.32;2.13;;;;;;;;;;5031341;28;20047;-72
2021/12/03 00:34:56;;;;;;;11.75;2.63;;;;;;;;;;5030526;28;20029;-72
2021/12/03 00:37:22;;;;;;;10.77;2.70;;;;;;;;;;5027903;28;20528;-73
2021/12/03 00:39:48;;;;;;;11.38;2.60;;;;;;;;;;5039956;28;20068;-72
2021/12/03 00:42:17;;;;;;;7.85;2.55;;;;;;;;;;5036448;28;20033;-73
2021/12/03 00:44:44;;;;;;;9.98;3.35;;;;;;;;;;5030223;28;20033;-73
2021/12/03 00:47:11;;;;;;;9.50;2.95;;;;;;;;;;5027265;28;20091;-73
2021/12/03 00:49:39;;;;;;;9.27;3.05;;;;;;;;;;5036795;28;20025;-73
2021/12/03 00:52:04;;;;;;;14.00;3.08;;;-1.90;99.90;;;;;;5035764;28;20083;-73
2021/12/03 00:54:30;;;;;;;10.55;2.90;;;;;;;;;;5013728;28;20126;-73
2021/12/03 00:56:56;;;;;;;8.25;2.80;;;;;;;;;;5027169;28;20040;-73
2021/12/03 00:59:22;;;;;;;10.68;3.00;;;;;;;;;;5035925;28;20028;-73
2021/12/03 01:01:48;;;;;;;11.20;2.97;;;;;;;;;;5032103;28;20036;-73
2021/12/03 01:04:14;;;;;;;15.52;3.90;;;;;;;;;;5031500;28;20072;-73
2021/12/03 01:06:40;;;;;;;9.35;2.78;;;;;;;;;;5028796;28;20137;-73
2021/12/03 01:09:06;;;;;;;14.32;3.25;;;;;;;;;;5033710;28;20052;-74
2021/12/03 01:11:32;;;;;;;12.00;3.28;;;;;;;;;;5031404;28;20053;-73
2021/12/03 01:14:00;;;;;;;10.23;3.22;;;;;;;;;;5028765;28;20041;-72
2021/12/03 01:16:26;;;;;;;9.32;3.85;;;;;;;;;;5027354;28;20033;-72
2021/12/03 01:18:52;;;;;;;11.45;3.58;;;;;;;;;;5034240;28;20476;-72
2021/12/03 01:21:18;;;;;;;9.27;3.40;;;-0.90;99.90;;;;;;5037101;28;20036;-72
2021/12/03 01:23:44;;;;;;;9.27;3.03;;;;;;;;;;5033978;28;20092;-72
2021/12/03 01:26:10;;;;;;;9.43;3.90;;;;;;;;;;5027418;28;20639;-72
2021/12/03 01:28:36;;;;;;;15.68;3.50;;;;;;;;;;5028971;28;20130;-72
2021/12/03 01:31:02;;;;;;;8.40;3.70;;;;;;;;;;5034571;28;20116;-72
2021/12/03 01:33:28;;;;;;;9.80;3.67;;;;;;;;;;5033342;28;20446;-72
2021/12/03 01:35:54;;;;;;;17.50;4.03;;;;;;;;;;5029286;28;20025;-72
2021/12/03 01:38:20;;;;;;;10.70;4.10;;;;;;;;;;5033461;28;20056;-72
2021/12/03 01:40:46;;;;;;;15.80;4.07;;;;;;;;;;5037468;28;20583;-72
2021/12/03 01:43:19;;;;;;;15.60;4.32;;;;;;;;;;5030611;28;20030;-73
2021/12/03 01:45:45;;;;;;;10.38;4.25;;;;;;;;;;5030056;28;20032;-73
2021/12/03 01:48:11;;;;;;;11.02;4.00;;;;;;;;;;5027948;28;20611;-73
2021/12/03 01:50:37;;;;;;;12.23;4.20;;;;;;;;;;5039388;28;20029;-73
2021/12/03 01:53:03;;;;;;;12.43;3.97;;;;;;;;;;5035014;28;20439;-72
2021/12/03 01:55:29;;;;;;;11.82;4.10;;;;;;;;;;5028579;28;20032;-73
2021/12/03 01:57:55;;;;;;;12.15;4.13;;;;;;;;;;5024759;28;20033;-73
2021/12/03 02:00:21;;;;;;;10.98;3.80;;;;;;;;;;5035453;28;20040;-73
2021/12/03 02:02:47;;;;;;;14.55;3.70;;;;;;;;;;5031146;28;20045;-73
2021/12/03 02:05:13;;;;;;;12.55;4.03;;;;;;;;;;5027717;28;20044;-73
2021/12/03 02:07:38;;;;;;;11.13;4.25;;;;;;;;;;5026477;28;20497;-73
2021/12/03 02:10:04;;;;;;;12.40;4.43;;;;;;;;;;5031657;28;20378;-74
2021/12/03 02:12:30;;;;;;;14.20;4.28;;;;;;;;;;5032672;28;20021;-73
2021/12/03 02:14:56;;;;;;;10.38;3.60;;;;;;;;;;5032029;28;20101;-74
2021/12/03 02:17:22;;;;;;;12.25;4.40;;;;;;;;;;5026023;28;20084;-73
2021/12/03 02:19:48;;;;;;;9.43;3.70;;;;;;;;;;5035632;28;20037;-65
2021/12/03 02:22:14;;;;;;;10.57;3.55;;;;;;;;;;5036140;28;20037;-65
2021/12/03 02:24:40;;;;;;;9.27;3.67;;;;;;;;;;5029632;28;20426;-65
2021/12/03 02:27:06;;;;;;;13.98;4.18;;;;;;;;;;5027428;28;20441;-65
2021/12/03 02:29:32;;;;;;;14.45;4.65;;;;;;;;;;5027806;28;20025;-65
2021/12/03 02:31:58;;;;;;;8.77;3.40;;;;;;;;;;5037747;28;20115;-65
2021/12/03 02:34:24;;;;;;;12.80;3.33;;;;;;;;;;5033129;28;20124;-65
2021/12/03 02:36:50;;;;;;;8.02;2.90;;;;;;;;;;5027725;28;20136;-65
2021/12/03 02:39:16;;;;;;;7.00;2.58;;;;;;;;;;5023352;28;20041;-65
2021/12/03 02:41:42;;;;;;;14.98;3.45;;;;;;;;;;5035399;28;20131;-65
2021/12/03 02:44:08;;;;;;;5.85;2.70;;;;;;;;;;5033178;28;20115;-65
2021/12/03 02:46:34;;;;;;;10.52;2.63;;;;;;;;;;5029293;28;20017;-65
2021/12/03 02:49:01;;;;;;;7.88;2.45;;;;;;;;;;5025160;28;20137;-65
2021/12/03 02:51:27;;;;;;;4.82;2.28;;;;;;;;;;5032635;28;20033;-65
2021/12/03 02:53:53;;;;;;;6.90;2.08;;;;;;;;;;5030250;28;20021;-65
2021/12/03 02:56:19;;;;;;;4.53;2.10;;;;;;;;;;5029881;28;20030;-65
2021/12/03 02:58:45;;;;;;;10.23;2.38;;;;;;;;;;5021024;28;20037;-65
2021/12/03 03:01:11;;;;;;;8.70;2.20;;;;;;;;;;5036002;28;20714;-65
2021/12/03 03:03:37;;;;;;;9.07;2.33;;;;;;;;;;5035446;28;20076;-65
2021/12/03 03:06:02;;;;;;;5.28;2.28;;;;;;;;;;5028387;28;20065;-65
2021/12/03 03:08:28;;;;;;;6.70;2.03;;;;;;;;;;5025641;28;20025;-65
2021/12/03 03:10:55;;;;;;;8.45;3.00;;;;;;;;;;5032707;28;20021;-65
2021/12/03 03:13:21;;;;;;;6.18;2.35;;;;;;;;;;5033653;28;20136;-65
2021/12/03 03:15:46;;;;;;;5.75;2.35;;;;;;;;;;5031893;28;20116;-65
2021/12/03 03:18:12;;;;;;;6.75;2.28;;;;;;;;;;5024091;28;20041;-65
2021/12/03 03:20:38;;;;;;;7.68;2.22;;;;;;;;;;5027426;28;20037;-65
2021/12/03 03:23:04;;;;;;;11.50;2.03;;;;;;;;;;5033735;28;20030;-65
2021/12/03 03:25:30;;;;;;;5.95;2.40;;;;;;;;;;5030095;28;20107;-65
2021/12/03 03:27:56;;;;;;;4.18;2.13;;;;;;;;;;5027503;28;20036;-65
2021/12/03 03:30:22;;;;;;;7.82;2.30;;;;;;;;;;5028903;28;20025;-65
2021/12/03 03:32:48;;;;;;;6.25;2.08;;;;;;;;;;5035664;28;20349;-65
2021/12/03 03:35:14;;;;;;;8.30;2.30;;;;;;;;;;5028711;28;20041;-65
2021/12/03 03:37:40;;;;;;;4.55;2.13;;;;;;;;;;5028208;28;20033;-65
2021/12/03 03:40:06;;;;;;;12.40;2.85;;;;;;;;;;5024776;28;20060;-65
2021/12/03 03:42:33;;;;;;;13.30;2.30;;;;;;;;;;5037829;28;20025;-65
2021/12/03 03:44:59;;;;;;;4.13;2.00;;;;;;;;;;5032222;28;20043;-65
2021/12/03 03:47:25;;;;;;;6.40;2.03;;;;;;;;;;5027077;28;20029;-65
2021/12/03 03:49:51;;;;;;;6.13;2.33;;;;;;;;;;5024815;28;20087;-65
2021/12/03 03:52:17;;;;;;;12.10;2.40;;;;;;;;;;5037241;28;20041;-65
2021/12/03 03:54:43;;;;;;;6.20;1.95;;;;;;;;;;5037597;28;20033;-65
2021/12/03 03:57:09;;;;;;;7.43;2.58;;;;;;;;;;5029852;28;20035;-65
2021/12/03 03:59:34;;;;;;;10.40;3.88;;;-0.10;99.90;;;;;;5028954;28;20811;-65
2021/12/03 04:02:00;;;;;;;9.13;2.53;;;;;;;;;;5029099;28;20650;-65
2021/12/03 04:04:26;;;;;;;8.13;2.42;;;;;;;;;;5033973;28;20178;-65
2021/12/03 04:06:53;;;;;;;6.40;2.10;;;;;;;;;;5034130;28;20036;-65
2021/12/03 04:09:19;;;;;;;12.98;3.38;;;;;;;;;;5029059;28;20049;-65
2021/12/03 04:11:45;;;;;;;6.07;3.05;;;;;;;;;;5037386;28;20029;-65
2021/12/03 04:14:11;;;;;;;6.93;2.10;;;;;;;;;;5038612;28;20068;-65
2021/12/03 04:16:37;;;;;;;8.98;2.90;;;;;;;;;;5032038;28;20128;-65
2021/12/03 04:19:03;;;;;;;8.10;2.28;;;;;;;;;;5027296;28;20021;-65
2021/12/03 04:21:28;;;;;;;12.10;2.00;;;-0.20;99.90;;;;;;5031239;28;20087;-65
2021/12/03 04:23:54;;;;;;;5.75;2.10;;;;;;;;;;5038020;28;20462;-65
2021/12/03 04:26:20;;;;;;;8.02;1.75;;;;;;;;;;5035343;28;20034;-65
2021/12/03 04:28:46;;;;;;;14.73;3.80;;;;;;;;;;5030076;28;20025;-65
2021/12/03 04:31:12;;;;;;;8.25;1.70;;;-0.30;99.90;;;;;;5031042;28;20025;-65
2021/12/03 04:33:38;;;;;;;4.97;1.73;;;;;;;;;;5036872;28;20064;-65
2021/12/03 04:36:04;;;;;;;5.60;1.70;;;;;;;;;;5035363;28;20021;-65
2021/12/03 04:38:30;;;;;;;2.70;1.60;;;;;;;;;;5031457;28;20033;-65
2021/12/03 04:40:56;;;;;;;7.40;2.00;;;;;;;;;;5029718;28;20025;-65
2021/12/03 04:43:22;;;;;;;5.50;2.60;;;;;;;;;;5036279;28;20033;-65
2021/12/03 04:45:48;;;;;;;12.32;1.58;;;-0.40;99.90;;;;;;5033580;28;20040;-65
2021/12/03 04:48:14;;;;;;;5.32;1.27;;;;;;;;;;5031487;28;20040;-65
2021/12/03 04:50:40;;;;;;;9.20;1.92;;;;;;;;;;5027519;28;20030;-65
2021/12/03 04:53:06;;;;;;;8.98;1.73;;;;;;;;;;5038796;28;20025;-65
2021/12/03 04:55:32;;;;;;;8.35;1.92;;;;;;;;;;5037320;28;20162;-65
2021/12/03 04:57:58;;;;;;;6.18;1.85;;;;;;;;;;5030433;28;20041;-65
2021/12/03 05:00:24;;;;;;;12.70;2.10;;;;;;;;;;5026520;28;20037;-65
2021/12/03 05:02:51;;;;;;;4.47;2.10;;;;;;;;;;5031863;28;20037;-65
2021/12/03 05:05:17;;;;;;;3.00;1.60;;;;;;;;;;5035917;28;20044;-65
2021/12/03 05:07:57;;;;;;;4.55;1.80;;;;;;;;;;5033589;28;20621;-65
2021/12/03 05:10:23;;;;;;;5.72;1.80;;;;;;;;;;5025746;28;20512;-65
2021/12/03 05:12:49;;;;;;;5.05;1.90;;;;;;;;;;5032963;28;20024;-65
2021/12/03 05:15:15;;;;;;;5.32;2.10;;;;;;;;;;5033839;28;20079;-65
2021/12/03 05:17:41;;;;;;;4.72;2.10;;;;;;;;;;5033638;28;20028;-65
2021/12/03 05:20:07;;;;;;;7.57;2.20;;;;;;;;;;5029030;28;20133;-65
2021/12/03 05:22:32;;;;;;;8.55;2.10;;;-0.60;99.90;;;;;;5031561;28;20793;-65
2021/12/03 05:24:58;;;;;;;10.27;2.00;;;;;;;;;;5035858;28;20039;-65
2021/12/03 05:27:24;;;;;;;7.13;2.22;;;;;;;;;;5030605;28;20816;-65
2021/12/03 05:29:50;;;;;;;7.28;2.20;;;;;;;;;;5022927;28;20033;-65
2021/12/03 05:32:16;;;;;;;11.70;2.38;;;;;;;;;;5027631;28;20036;-65
2021/12/03 05:34:42;;;;;;;17.40;2.50;;;-0.50;99.90;;;;;;5039065;28;20029;-65
2021/12/03 05:37:07;;;;;;;9.52;2.20;;;-0.30;99.90;;;;;;5034957;28;20826;-65
2021/12/03 05:39:33;;;;;;;14.02;2.38;;;;;;;;;;5027773;28;20156;-65
2021/12/03 05:41:59;;;;;;;7.70;2.50;;;;;;;;;;5025794;28;20116;-65
2021/12/03 05:44:25;;;;;;;8.57;2.65;;;;;;;;;;5033708;28;20029;-65
2021/12/03 05:46:51;;;;;;;5.72;2.25;;;;;;;;;;5034996;28;20131;-65
2021/12/03 05:49:17;;;;;;;6.57;2.38;;;;;;;;;;5030959;28;20086;-65
2021/12/03 05:51:43;;;;;;;7.20;2.35;;;;;;;;;;5025642;28;20393;-64
2021/12/03 05:54:09;;;;;;;7.00;2.33;;;-0.30;99.90;;;;;;5031355;28;20028;-65
2021/12/03 05:56:35;;;;;;;7.28;2.50;;;;;;;;;;5027777;28;20038;-65
2021/12/03 05:59:01;;;;;;;10.10;2.78;;;;;;;;;;5022181;28;20025;-65
2021/12/03 06:01:27;;;;;;;6.82;2.58;;;;;;;;;;5012980;28;20096;-65
2021/12/03 06:03:53;;;;;;;10.27;3.20;;;;;;;;;;5034521;28;20482;-66
2021/12/03 06:06:19;;;;;;;7.40;2.67;;;;;;;;;;5019121;28;20037;-65
2021/12/03 06:08:45;;;;;;;7.20;3.08;;;;;;;;;;5029762;28;20917;-65
2021/12/03 06:11:11;;;;;;;6.68;2.30;;;;;;;;;;5027315;28;20086;-65
2021/12/03 06:13:39;;;;;;;9.05;3.55;;;;;;;;;;5031720;28;20033;-65
2021/12/03 06:16:05;;;;;;;6.10;3.10;;;;;;;;;;5026843;28;20033;-65
2021/12/03 06:18:31;;;;;;;9.45;3.10;;;;;;;;;;5019204;28;20123;-65
2021/12/03 06:20:57;;;;;;;10.27;3.15;;;;;;;;;;5024261;28;20030;-65
2021/12/03 06:23:23;;;;;;;10.68;3.40;;;;;;;;;;5024639;28;20035;-65
2021/12/03 06:25:49;;;;;;;9.43;3.47;;;;;;;;;;5029581;28;20029;-65
2021/12/03 06:28:15;;;;;;;6.13;2.95;;;;;;;;;;5023210;28;20114;-65
2021/12/03 06:30:41;;;;;;;11.10;3.40;;;;;;;;;;5024657;28;20494;-65
2021/12/03 06:33:07;;;;;;;10.43;3.25;;;;;;;;;;5025587;28;20120;-65
2021/12/03 06:35:33;;;;;;;6.47;3.08;;;;;;;;;;5026262;28;20060;-65
2021/12/03 06:37:59;;;;;;;5.93;3.17;;;;;;;;;;5027640;28;20065;-65
2021/12/03 06:40:25;;;;;;;10.93;3.80;;;;;;;;;;5021202;28;20481;-65
2021/12/03 06:42:51;;;;;;;26.05;9.90;;;;;;;;;;5017219;28;20052;-65
2021/12/03 06:45:17;;;;;;;39.10;15.20;;;;;;;;;;5031063;28;20045;-65
2021/12/03 06:47:43;;;;;;;24.35;10.65;;;;;;;;;;5018287;28;20558;-65
2021/12/03 06:50:10;;;;;;;10.80;4.75;;;;;;;;;;5019637;28;20123;-65
2021/12/03 06:52:38;;;;;;;27.08;11.27;;;;;;;;;;5023304;28;20143;-65
2021/12/03 06:55:05;;;;;;;19.02;7.22;;;;;;;;;;5029037;28;20034;-65
2021/12/03 06:57:31;;;;;;;8.52;3.80;;;;;;;;;;5032097;28;20034;-66
2021/12/03 06:59:57;;;;;;;11.23;4.40;;;;;;;;;;5024114;28;20140;-65
2021/12/03 07:02:23;;;;;;;15.77;6.90;;;0.00;99.90;;;;;;5021151;28;20115;-65
2021/12/03 07:04:49;;;;;;;14.90;4.95;;;;;;;;;;5030337;28;20032;-65
2021/12/03 07:07:15;;;;;;;15.45;5.57;;;;;;;;;;5030743;28;20148;-64
2021/12/03 07:09:41;;;;;;;23.15;8.25;;;;;;;;;;5023512;28;20029;-65
2021/12/03 07:12:08;;;;;;;11.35;5.88;;;;;;;;;;5021127;28;20087;-65
2021/12/03 07:14:34;;;;;;;15.57;7.43;;;;;;;;;;5029632;28;20500;-65
2021/12/03 07:17:05;;;;;;;17.17;8.10;;;;;;;;;;5026608;28;20106;-65
2021/12/03 07:19:31;;;;;;;12.77;5.57;;;;;;;;;;5018591;28;20069;-65
2021/12/03 07:21:57;;;;;;;13.30;5.85;;;;;;;;;;5017266;28;20797;-64
2021/12/03 07:24:23;;;;;;;10.85;4.25;;;;;;;;;;5030425;28;20029;-65
2021/12/03 07:26:48;;;;;;;16.02;5.20;;;0.20;99.90;;;;;;5035886;28;20220;-65
2021/12/03 07:29:14;;;;;;;12.95;4.20;;;;;;;;;;5024552;28;20029;-65
2021/12/03 07:31:40;;;;;;;11.77;5.15;;;;;;;;;;5008769;28;20025;-65
2021/12/03 07:34:06;;;;;;;11.55;4.18;;;;;;;;;;5025598;28;20102;-65
2021/12/03 07:36:32;;;;;;;11.32;3.67;;;;;;;;;;5034551;28;20063;-65
2021/12/03 07:38:58;;;;;;;11.23;4.40;;;;;;;;;;5033295;28;20815;-65
2021/12/03 07:41:24;;;;;;;7.85;3.33;;;0.60;99.90;;;;;;5025971;28;20041;-65
2021/12/03 07:43:50;;;;;;;11.68;3.53;;;;;;;;;;5020290;28;20260;-64
2021/12/03 07:46:16;;;;;;;9.85;3.72;;;;;;;;;;5035165;28;20080;-65
2021/12/03 07:48:46;;;;;;;15.10;4.65;;;;;;;;;;5029037;28;20032;-65
2021/12/03 07:51:12;;;;;;;9.15;3.83;;;0.50;99.90;;;;;;5026872;28;20034;-65
2021/12/03 07:53:38;;;;;;;8.68;4.18;;;;;;;;;;5023667;28;20029;-64
2021/12/03 07:56:04;;;;;;;13.98;4.15;;;;;;;;;;5035160;28;20028;-65
2021/12/03 07:58:30;;;;;;;9.90;3.60;;;;;;;;;;5020634;28;20120;-65
2021/12/03 08:00:57;;;;;;;12.75;4.95;;;;;;;;;;5031558;28;20891;-65
2021/12/03 08:03:23;;;;;;;10.80;3.47;;;;;;;;;;5021915;28;20033;-65
2021/12/03 08:05:49;;;;;;;8.18;3.78;;;;;;;;;;5032225;28;20625;-65
2021/12/03 08:08:22;;;;;;;7.30;3.22;;;;;;;;;;5032226;28;20041;-65
2021/12/03 08:10:48;;;;;;;9.32;3.33;;;;;;;;;;5026331;28;20033;-65
2021/12/03 08:13:14;;;;;;;8.75;2.97;;;;;;;;;;5028015;28;20033;-65
2021/12/03 08:15:40;;;;;;;6.75;3.10;;;;;;;;;;5024448;28;20044;-65
2021/12/03 08:18:06;;;;;;;10.23;3.15;;;;;;;;;;5030889;28;20119;-64
2021/12/03 08:20:32;;;;;;;6.82;2.90;;;;;;;;;;5025899;28;20478;-65
2021/12/03 08:22:58;;;;;;;8.45;3.28;;;;;;;;;;5028069;28;20021;-65
2021/12/03 08:25:24;;;;;;;8.52;3.00;;;;;;;;;;5026036;28;20704;-65
2021/12/03 08:27:50;;;;;;;10.75;2.90;;;;;;;;;;5031724;28;20076;-64
2021/12/03 08:30:16;;;;;;;9.32;3.10;;;;;;;;;;5030049;28;20455;-65
2021/12/03 08:32:42;;;;;;;5.93;3.08;;;;;;;;;;5028399;28;20044;-64
2021/12/03 08:35:08;;;;;;;7.88;3.13;;;;;;;;;;5025544;28;20401;-65
2021/12/03 08:37:34;;;;;;;6.75;3.25;;;;;;;;;;5036802;28;20025;-65
2021/12/03 08:40:00;;;;;;;7.13;3.20;;;;;;;;;;5023542;28;20095;-65
2021/12/03 08:42:26;;;;;;;8.32;2.63;;;;;;;;;;5028121;28;20825;-65
2021/12/03 08:44:52;;;;;;;9.63;3.47;;;;;;;;;;5016778;28;20032;-65
2021/12/03 08:47:18;;;;;;;12.90;2.88;;;;;;;;;;5027069;28;20120;-64
2021/12/03 08:54:50;;;;;;;11.18;3.10;;;;;;;;;;5015761;28;20032;-64
2021/12/03 08:57:16;;;;;;;13.88;5.47;;;;;;;;;;5026765;28;20045;-64
2021/12/03 08:59:42;;;;;;;10.63;3.00;;;;;;;;;;5032019;28;20029;-64
2021/12/03 09:02:08;;;;;;;10.45;3.80;;;;;;;;;;5020000;28;20711;-64
2021/12/03 09:04:34;;;;;;;7.20;4.00;;;;;;;;;;5002501;28;20204;-64
2021/12/03 09:07:00;;;;;;;9.55;3.28;;;;;;;;;;5030801;28;20580;-64
2021/12/03 09:09:26;;;;;;;49.08;15.15;;;;;;;;;;5025282;28;20041;-64
2021/12/03 09:11:52;;;;;;;77.25;26.25;;;;;;;;;;5029452;28;20029;-65
2021/12/03 09:14:29;;;;;;;55.38;21.45;;;;;;;;;;5021498;28;20037;-64
2021/12/03 09:17:44;;;;;;;50.40;18.23;;;;;;;;;;5029073;28;20037;-64
2021/12/03 09:19:57;;;;;;;41.47;13.80;;;;;;;;;;5030104;28;20051;-64
2021/12/03 09:24:53;;;;;;;11.00;5.90;;;;;;;;;;5026019;28;20045;-65
2021/12/03 09:27:20;;;;;;;16.05;6.75;;;;;;;;;;5027730;28;20037;-65
2021/12/03 09:29:46;;;;;;;12.18;5.47;;;3.10;99.90;;;;;;5026746;28;20026;-64
2021/12/03 09:32:20;;;;;;;5.90;3.47;;;2.90;99.90;;;;;;5022538;28;20025;-64
2021/12/03 09:34:45;;;;;;;10.75;3.17;;;2.80;99.90;;;;;;5022141;28;20553;-64
2021/12/03 09:37:11;;;;;;;6.90;4.13;;;2.80;99.90;;;;;;5018558;28;20091;-64
2021/12/03 09:39:40;;;;;;;9.57;4.05;;;;;;;;;;5009086;28;20026;-64
2021/12/03 09:42:06;;;;;;;9.48;3.50;;;3.90;99.90;;;;;;5028160;28;20068;-64
2021/12/03 09:44:33;;;;;;;5.55;3.22;;;;;;;;;;5019055;28;20165;-65
2021/12/03 09:46:59;;;;;;;6.13;3.13;;;3.20;99.90;;;;;;5023458;28;20048;-64
2021/12/03 09:49:38;;;;;;;7.80;4.28;;;5.00;99.90;;;;;;5025979;28;20071;-65
2021/12/03 09:52:25;;;;;;;10.82;5.10;;;3.40;99.90;;;;;;5023709;28;20060;-64
2021/12/03 09:54:54;;;;;;;10.50;4.28;;;3.40;99.90;;;;;;5019664;28;20026;-65
2021/12/03 09:57:28;;;;;;;10.63;4.03;;;3.40;99.90;;;;;;5028967;28;20045;-64
2021/12/03 10:13:33;;;;;;;8.70;3.58;;;;;;;;;;5019400;28;20080;-65
2021/12/03 10:18:42;;;;;;;16.30;7.18;;;3.50;99.90;;;;;;5026244;28;20037;-65
2021/12/03 10:21:51;;;;;;;13.18;5.18;;;3.50;99.90;;;;;;5031271;28;20036;-65
2021/12/03 10:24:28;;;;;;;7.45;2.63;;;3.80;99.90;;;;;;5021729;28;20166;-65
2021/12/03 10:52:25;;;;;;;6.53;2.72;;;4.10;99.90;;;;;;5031593;28;20790;-64
2021/12/03 10:55:16;;;;;;;5.57;2.30;;;4.20;99.90;;;;;;5020471;28;20175;-66
2021/12/03 10:58:06;;;;;;;5.22;2.80;;;3.50;99.90;;;;;;5022244;28;20040;-65
2021/12/03 11:08:39;;;;;;;9.10;2.63;;;3.50;99.90;;;;;;5024548;28;20855;-65
2021/12/03 11:43:31;;;;;;;14.07;9.95;;;3.90;99.90;;;;;;5025683;28;20047;-65
2021/12/03 11:46:51;;;;;;;6.88;3.33;;;3.90;99.90;;;;;;5026775;28;20037;-65
2021/12/03 11:52:12;;;;;;;7.45;3.17;;;3.90;99.90;;;;;;5034782;28;20067;-64
2021/12/03 12:00:09;;;;;;;8.30;3.35;;;4.00;99.90;;;;;;5021549;28;20740;-65
2021/12/03 12:03:42;;;;;;;6.97;4.00;;;3.90;99.90;;;;;;5029552;28;20072;-65
2021/12/03 12:06:50;;;;;;;13.52;3.80;;;3.80;99.90;;;;;;5012848;28;20141;-65
2021/12/03 12:30:48;;;;;;;10.02;5.05;;;3.50;99.90;;;;;;5023600;28;20332;-64
2021/12/03 12:38:21;;;;;;;13.30;5.10;;;3.70;99.90;;;;;;5016492;28;20069;-64
2021/12/03 12:40:36;;;;;;;15.77;5.85;;;3.80;99.90;;;;;;5028385;28;20061;-67
2021/12/03 12:46:20;;;;;;;26.08;6.65;;;3.70;99.90;;;;;;5023450;28;20414;-66
2021/12/03 13:05:24;;;;;;;18.20;6.28;;;3.70;99.90;;;;;;5021895;28;20079;-65
2021/12/03 13:18:03;;;;;;;13.10;4.70;;;3.40;99.90;;;;;;5019673;28;20561;-65
2021/12/03 13:23:26;;;;;;;7.97;4.15;;;3.40;99.90;;;;;;5024899;28;20037;-64
2021/12/03 13:38:04;;;;;;;20.50;7.25;;;3.10;99.90;;;;;;5027928;28;20021;-64
2021/12/03 14:24:02;;;;;;;14.55;6.28;;;2.70;99.90;;;;;;5025709;28;20028;-63
2021/12/03 14:29:30;;;;;;;14.07;6.88;;;2.60;99.90;;;;;;5024533;28;20116;-63
2021/12/03 14:41:19;;;;;;;16.88;7.38;;;2.60;99.90;;;;;;5017189;28;20034;-63
2021/12/03 14:44:03;;;;;;;16.27;7.25;;;2.60;99.90;;;;;;5023525;28;20115;-64
2021/12/03 14:55:11;;;;;;;14.30;6.38;;;2.40;99.90;;;;;;5006454;28;20042;-63
2021/12/03 15:00:18;;;;;;;15.68;7.10;;;2.40;99.90;;;;;;5024706;28;20036;-63
2021/12/03 15:02:55;;;;;;;19.67;7.15;;;2.40;99.90;;;;;;5027426;28;20037;-63
2021/12/03 15:07:51;;;;;;;13.25;6.10;;;2.40;99.90;;;;;;5025509;28;20033;-64
2021/12/03 15:10:39;;;;;;;13.55;6.75;;;2.40;99.90;;;;;;5012233;28;20041;-64
2021/12/03 15:13:23;;;;;;;18.75;8.02;;;;;;;;;;5023621;28;20025;-64
2021/12/03 15:23:44;;;;;;;14.50;7.00;;;2.30;99.90;;;;;;5031192;28;20076;-64
2021/12/03 15:29:12;;;;;;;13.07;5.97;;;2.60;99.90;;;;;;5022468;28;20509;-65
2021/12/03 15:31:43;;;;;;;12.95;6.15;;;2.50;99.90;;;;;;5017717;28;20057;-63
2021/12/03 15:34:40;;;;;;;14.00;6.50;;;2.30;99.90;;;;;;5027609;28;20480;-63
2021/12/03 16:03:29;;;;;;;13.57;6.22;;;2.50;99.90;;;;;;5029471;28;20497;-64
2021/12/03 16:07:38;;;;;;;18.08;6.95;;;2.30;99.90;;;;;;5037325;28;20768;-63
2021/12/03 16:09:38;;;;;;;;;;;2.40;99.90;;;;;;5027116;28;20136;-64
2021/12/03 16:12:51;;;;;;;11.82;6.07;;;2.30;99.90;;;;;;5028667;28;19913;-63
2021/12/03 16:17:48;;;;;;;13.90;6.88;;;2.40;99.90;;;;;;5036662;28;20433;-64
2021/12/03 16:20:40;;;;;;;14.25;6.07;;;2.40;99.90;;;;;;5029554;28;20049;-64
2021/12/03 16:26:04;;;;;;;12.13;5.68;;;2.60;99.90;;;;;;5034296;28;20108;-65
2021/12/03 16:52:52;;;;;;;10.82;4.45;;;2.40;99.90;;;;;;5024083;28;20485;-64
2021/12/03 16:55:18;;;;;;;12.90;4.85;;;2.50;99.90;;;;;;5035169;28;20063;-64
2021/12/03 16:57:45;;;;;;;12.65;4.63;;;2.50;99.90;;;;;;5035241;28;20144;-64
2021/12/03 17:00:29;;;;;;;14.18;5.35;;;2.60;99.90;;;;;;5027883;28;20033;-65
2021/12/03 17:03:10;;;;;;;11.05;4.75;;;;;;;;;;5023989;28;20584;-64
2021/12/03 17:24:54;;;;;;;11.35;4.38;;;;;;;;;;5008219;28;20050;-64
2021/12/03 17:56:33;;;;;;;10.40;4.32;;;2.60;99.90;;;;;;5037018;28;20040;-65
2021/12/03 18:04:39;;;;;;;11.25;4.38;;;2.60;99.90;;;;;;5026980;28;20060;-64
2021/12/03 18:12:22;;;;;;;11.90;4.50;;;2.50;99.90;;;;;;5027150;28;20401;-64
2021/12/03 18:18:07;;;;;;;7.60;3.72;;;2.60;99.90;;;;;;5031125;28;20041;-64
2021/12/03 18:48:17;;;;;;;10.50;3.92;;;;;;;;;;5032222;28;20044;-64
2021/12/03 18:50:49;;;;;;;9.05;4.32;;;2.30;99.90;;;;;;5029081;28;20535;-65
2021/12/03 18:53:35;;;;;;;10.75;4.63;;;2.50;99.90;;;;;;5023398;28;20042;-64
2021/12/03 18:56:04;;;;;;;8.80;4.78;;;;;;;;;;5028898;28;20033;-64
2021/12/03 18:58:31;;;;;;;10.45;4.82;;;;;;;;;;5025791;28;20037;-64
2021/12/03 19:00:57;;;;;;;11.98;4.40;;;;;;;;;;5029869;28;20076;-64
2021/12/03 19:08:51;;;;;;;11.75;5.30;;;2.60;99.90;;;;;;5034311;28;20049;-64
2021/12/03 19:11:21;;;;;;;10.63;4.95;;;2.50;99.90;;;;;;5025356;28;20120;-64
2021/12/03 19:13:47;;;;;;;9.32;4.95;;;;;;;;;;5025221;28;20033;-64
2021/12/03 19:16:15;;;;;;;13.40;4.93;;;2.40;99.90;;;;;;5032481;28;20037;-64
2021/12/03 19:18:45;;;;;;;11.95;5.38;;;2.50;99.90;;;;;;5032578;28;20033;-64
2021/12/03 19:21:13;;;;;;;11.65;4.95;;;;;;;;;;5030156;28;20116;-63
2021/12/03 19:23:39;;;;;;;8.15;4.78;;;2.50;99.90;;;;;;5029283;28;20051;-64
2021/12/03 19:26:04;;;;;;;10.98;4.95;;;2.50;99.90;;;;;;5021528;28;20832;-64
2021/12/03 19:28:31;;;;;;;12.60;5.00;;;2.50;99.90;;;;;;5033332;28;20025;-64
2021/12/03 19:30:57;;;;;;;8.68;4.78;;;;;;;;;;5035245;28;20033;-64
2021/12/03 19:33:23;;;;;;;14.43;5.20;;;2.50;99.90;;;;;;5030008;28;20033;-64
2021/12/03 19:35:48;;;;;;;8.30;4.30;;;2.50;99.90;;;;;;5031121;28;20025;-65
2021/12/03 19:38:16;;;;;;;10.98;4.95;;;2.50;99.90;;;;;;5037073;28;20041;-64
2021/12/03 19:40:50;;;;;;;9.13;4.43;;;2.60;99.90;;;;;;5030921;28;20148;-64
2021/12/03 19:43:18;;;;;;;7.90;4.40;;;2.60;99.90;;;;;;5029180;28;20480;-64
2021/12/03 19:45:56;;;;;;;10.95;4.75;;;2.50;99.90;;;;;;5026311;28;20038;-64
2021/12/03 19:48:21;;;;;;;13.57;4.20;;;2.30;99.90;;;;;;5037049;28;20041;-64
2021/12/03 19:50:54;;;;;;;9.07;4.45;;;2.90;99.90;;;;;;5036151;28;20088;-64
2021/12/03 19:53:27;;;;;;;7.10;4.20;;;2.50;99.90;;;;;;5022943;28;20037;-65
2021/12/03 19:55:53;;;;;;;9.30;4.47;;;;;;;;;;5027400;28;20194;-64
2021/12/03 19:58:20;;;;;;;11.68;4.10;;;;;;;;;;5035004;28;20056;-64
2021/12/03 20:00:46;;;;;;;9.23;4.70;;;2.70;99.90;;;;;;5035394;28;20036;-64
2021/12/03 20:03:11;;;;;;;8.30;4.20;;;2.50;99.90;;;;;;5032446;28;20064;-64
2021/12/03 20:05:37;;;;;;;11.20;4.63;;;;;;;;;;5027699;28;20037;-64
2021/12/03 20:08:04;;;;;;;10.18;4.78;;;2.50;99.90;;;;;;5033965;28;20056;-64
2021/12/03 20:10:33;;;;;;;8.30;5.05;;;2.30;99.90;;;;;;5032162;28;20037;-64
2021/12/03 20:13:00;;;;;;;8.32;4.90;;;2.20;99.90;;;;;;5033092;28;20037;-64
2021/12/03 20:15:30;;;;;;;12.18;5.43;;;2.30;99.90;;;;;;5028312;28;20056;-64
2021/12/03 20:17:58;;;;;;;15.52;5.50;;;1.70;99.90;;;;;;5036760;28;20095;-64
2021/12/03 20:20:25;;;;;;;15.10;5.72;;;2.10;99.90;;;;;;5034189;28;20044;-64
2021/12/03 20:23:00;;;;;;;12.93;6.15;;;1.90;99.90;;;;;;5031850;28;20029;-64
2021/12/03 20:28:09;;;;;;;11.60;5.93;;;1.80;99.90;;;;;;5036665;28;20144;-64
2021/12/03 20:30:48;;;;;;;13.43;5.82;;;1.10;99.90;;;;;;5034372;28;20446;-65
2021/12/03 20:38:28;;;;;;;12.43;5.72;;;1.40;99.90;;;;;;5034855;28;20131;-64
2021/12/03 20:41:02;;;;;;;9.00;5.18;;;1.80;99.90;;;;;;5035036;28;20412;-64
2021/12/03 20:51:12;;;;;;;11.10;6.20;;;1.50;99.90;;;;;;5029976;28;20065;-64
2021/12/03 21:10:04;;;;;;;17.75;5.90;;;1.70;99.90;;;;;;5036020;28;20505;-65
2021/12/03 21:12:36;;;;;;;13.48;5.63;;;;;;;;;;5027974;28;20047;-65
2021/12/03 21:15:47;;;;;;;11.55;5.03;;;;;;;;;;5030103;28;20033;-65
2021/12/03 21:18:25;;;;;;;11.55;5.78;;;1.90;99.90;;;;;;5024594;28;20080;-64